^^
Datos históricos de la estación: Murcia-Puente Tocinos
Diario Informe para Noviembre 15, 2017 Unidades:  Ambas    Inglés   Métrico
« Anterior Día
Siguiente Día »
Diario Semanal Mensual Anual Configurable
  Máximo: Mínimo: Media:
Temperatura: 67.8 °F /  19.9 °C 43.3 °F /  6.3 °C 54 °F /  12.2 °C
Punto de rocio: 46.2 °F /  7.9 °C 28.8 °F /  -1.8 °C 37.2 °F /  2.9 °C
Humedad: 71% 38% 54%
Velocidad viento: 5.4mph /  8.7km/h - 3.2mph /  5.2km/h
Racha viento: 9.2mph /  14.8km/h - -
Viento- - Sur
Presión: 30.1 in /  1020.5 hPa 30 in /  1015.8 hPa -
Precipitación: 0 in /  0.0 mm    
Historical Graphs
 
 
Tabla de datos para Noviembre 15, 2017
Hora Temperatura Punto de rocio Presión Viento Velocidad viento Racha viento Humedad Intensidad lluvia(por hora) Nubes
00:04 50.4 °F /  10.2 °C 34.9 °F /  1.6 °C 30.1in /  1019.9hPa ESE 1.4mph /  2.3km/h 1.4mph /  2.3km/h 55% 0in /  0.0mm CLR
00:09 50.2 °F /  10.1 °C 35.1 °F /  1.7 °C 30.1in /  1019.5hPa SW 1.8mph /  2.9km/h 4.6mph /  7.4km/h 56% 0in /  0.0mm CLR
00:14 50.2 °F /  10.1 °C 35.1 °F /  1.7 °C 30.1in /  1019.5hPa SW 1.8mph /  2.9km/h 2.3mph /  3.7km/h 56% 0in /  0.0mm CLR
00:19 50.2 °F /  10.1 °C 35.1 °F /  1.7 °C 30.1in /  1019.5hPa SW 2.4mph /  3.9km/h 2.4mph /  3.9km/h 56% 0in /  0.0mm CLR
00:24 50.2 °F /  10.1 °C 35.4 °F /  1.9 °C 30.1in /  1019.5hPa SSW 2.4mph /  3.9km/h 2.4mph /  3.9km/h 57% 0in /  0.0mm CLR
00:29 50.2 °F /  10.1 °C 35.4 °F /  1.9 °C 30.1in /  1019.5hPa South 2mph /  3.2km/h 4.6mph /  7.4km/h 57% 0in /  0.0mm CLR
00:34 49.8 °F /  9.9 °C 34.7 °F /  1.5 °C 30.1in /  1019.5hPa SSW 2mph /  3.2km/h 4.6mph /  7.4km/h 56% 0in /  0.0mm CLR
00:39 49.8 °F /  9.9 °C 34.7 °F /  1.5 °C 30.1in /  1019.9hPa SSE 3.1mph /  5.0km/h 4.7mph /  7.6km/h 56% 0in /  0.0mm CLR
00:44 49.6 °F /  9.8 °C 34.5 °F /  1.4 °C 30.1in /  1019.9hPa SSE 3.1mph /  5.0km/h 4.6mph /  7.4km/h 56% 0in /  0.0mm CLR
00:49 49.5 °F /  9.7 °C 34 °F /  1.1 °C 30.1in /  1019.9hPa SW 3.6mph /  5.8km/h 4.6mph /  7.4km/h 55% 0in /  0.0mm CLR
00:54 49.5 °F /  9.7 °C 34 °F /  1.1 °C 30.1in /  1019.9hPa SSW 3.6mph /  5.8km/h 5.8mph /  9.3km/h 55% 0in /  0.0mm CLR
00:59 49.5 °F /  9.7 °C 34 °F /  1.1 °C 30.1in /  1019.9hPa SSW 3.6mph /  5.8km/h 4.6mph /  7.4km/h 55% 0in /  0.0mm CLR
01:01 49.3 °F /  9.6 °C 33.8 °F /  1.0 °C 30.1in /  1019.9hPa SSW 3.6mph /  5.8km/h 4.7mph /  7.6km/h 55% 0in /  0.0mm CLR
01:06 49.5 °F /  9.7 °C 34 °F /  1.1 °C 30.1in /  1019.9hPa SW 3.6mph /  5.8km/h 5.8mph /  9.3km/h 55% 0in /  0.0mm CLR
01:11 49.5 °F /  9.7 °C 34 °F /  1.1 °C 30.1in /  1019.9hPa WSW 3.6mph /  5.8km/h 4.6mph /  7.4km/h 55% 0in /  0.0mm CLR
01:16 49.5 °F /  9.7 °C 34 °F /  1.1 °C 30.1in /  1019.9hPa WSW 3.6mph /  5.8km/h 4.6mph /  7.4km/h 55% 0in /  0.0mm CLR
01:21 49.5 °F /  9.7 °C 34 °F /  1.1 °C 30.1in /  1019.9hPa SSW 3.1mph /  5.0km/h 4.6mph /  7.4km/h 55% 0in /  0.0mm CLR
01:26 49.5 °F /  9.7 °C 34 °F /  1.1 °C 30.1in /  1019.9hPa SW 3.1mph /  5.0km/h 4.6mph /  7.4km/h 55% 0in /  0.0mm CLR
01:31 49.5 °F /  9.7 °C 33.4 °F /  0.8 °C 30.1in /  1019.9hPa SW 3.1mph /  5.0km/h 5.8mph /  9.3km/h 54% 0in /  0.0mm CLR
01:36 49.5 °F /  9.7 °C 33.4 °F /  0.8 °C 30.1in /  1019.9hPa SW 3.1mph /  5.0km/h 3.5mph /  5.6km/h 54% 0in /  0.0mm CLR
01:41 49.5 °F /  9.7 °C 33.4 °F /  0.8 °C 30.1in /  1019.9hPa SSW 2.9mph /  4.7km/h 4.6mph /  7.4km/h 54% 0in /  0.0mm CLR
01:46 49.3 °F /  9.6 °C 34.7 °F /  1.5 °C 30.1in /  1019.9hPa ESE 2.9mph /  4.7km/h 4.6mph /  7.4km/h 57% 0in /  0.0mm CLR
01:51 48 °F /  8.9 °C 34.9 °F /  1.6 °C 30.1in /  1019.9hPa SSE 2.9mph /  4.7km/h 5.8mph /  9.3km/h 60% 0in /  0.0mm CLR
01:56 47.1 °F /  8.4 °C 34.9 °F /  1.6 °C 30.1in /  1019.9hPa South 2.9mph /  4.7km/h 4.7mph /  7.6km/h 62% 0in /  0.0mm CLR
02:01 46.8 °F /  8.2 °C 34.3 °F /  1.3 °C 30.1in /  1019.9hPa SSE 3.6mph /  5.8km/h 5.8mph /  9.3km/h 62% 0in /  0.0mm CLR
02:06 46.2 °F /  7.9 °C 34.3 °F /  1.3 °C 30.1in /  1019.9hPa SE 3.6mph /  5.8km/h 4.7mph /  7.6km/h 63% 0in /  0.0mm CLR
02:11 45.9 °F /  7.7 °C 34 °F /  1.1 °C 30.1in /  1019.9hPa SSE 4.3mph /  6.9km/h 6.9mph /  11.1km/h 63% 0in /  0.0mm CLR
02:16 45.9 °F /  7.7 °C 33.6 °F /  0.9 °C 30.1in /  1019.9hPa South 4.3mph /  6.9km/h 4.6mph /  7.4km/h 62% 0in /  0.0mm CLR
02:21 46 °F /  7.8 °C 33.3 °F /  0.7 °C 30.1in /  1019.9hPa SSE 4.3mph /  6.9km/h 5.8mph /  9.3km/h 61% 0in /  0.0mm CLR
02:26 46.2 °F /  7.9 °C 33.1 °F /  0.6 °C 30.1in /  1019.9hPa SSE 4.3mph /  6.9km/h 5.8mph /  9.3km/h 60% 0in /  0.0mm CLR
02:31 46.4 °F /  8.0 °C 32.7 °F /  0.4 °C 30.1in /  1019.9hPa SSE 4.3mph /  6.9km/h 5.8mph /  9.3km/h 59% 0in /  0.0mm CLR
02:36 46.6 °F /  8.1 °C 33.1 °F /  0.6 °C 30.1in /  1019.9hPa SSW 4.3mph /  6.9km/h 4.6mph /  7.4km/h 59% 0in /  0.0mm CLR
02:41 46.6 °F /  8.1 °C 32.5 °F /  0.3 °C 30.1in /  1019.9hPa South 4.3mph /  6.9km/h 5.9mph /  9.5km/h 58% 0in /  0.0mm CLR
02:46 46.6 °F /  8.1 °C 32.2 °F /  0.1 °C 30.1in /  1019.9hPa South 4.3mph /  6.9km/h 5.8mph /  9.3km/h 57% 0in /  0.0mm CLR
02:51 46.6 °F /  8.1 °C 32.2 °F /  0.1 °C 30.1in /  1019.9hPa SSE 4mph /  6.4km/h 6.9mph /  11.1km/h 57% 0in /  0.0mm CLR
02:56 46.6 °F /  8.1 °C 32.2 °F /  0.1 °C 30.1in /  1019.9hPa SSW 4mph /  6.4km/h 6.9mph /  11.1km/h 57% 0in /  0.0mm CLR
02:57 46.8 °F /  8.2 °C 32.4 °F /  0.2 °C 30.1in /  1019.9hPa SSW 4mph /  6.4km/h 6.9mph /  11.1km/h 57% 0in /  0.0mm CLR
03:02 46.8 °F /  8.2 °C 32.4 °F /  0.2 °C 30.1in /  1019.9hPa South 4.3mph /  6.9km/h 5.8mph /  9.3km/h 57% 0in /  0.0mm CLR
03:07 46.8 °F /  8.2 °C 32.4 °F /  0.2 °C 30.1in /  1019.9hPa SSE 4.3mph /  6.9km/h 5.8mph /  9.3km/h 57% 0in /  0.0mm CLR
03:12 46.6 °F /  8.1 °C 32.2 °F /  0.1 °C 30.1in /  1019.9hPa SSW 4mph /  6.4km/h 5.8mph /  9.3km/h 57% 0in /  0.0mm CLR
03:17 46.6 °F /  8.1 °C 32.2 °F /  0.1 °C 30.1in /  1019.9hPa South 4mph /  6.4km/h 5.8mph /  9.3km/h 57% 0in /  0.0mm CLR
03:22 46.6 °F /  8.1 °C 31.6 °F /  -0.2 °C 30.1in /  1019.5hPa SSW 4mph /  6.4km/h 7.4mph /  11.9km/h 56% 0in /  0.0mm CLR
03:27 46.6 °F /  8.1 °C 31.6 °F /  -0.2 °C 30.1in /  1019.5hPa South 4mph /  6.4km/h 5.8mph /  9.3km/h 56% 0in /  0.0mm CLR
03:32 46.6 °F /  8.1 °C 31.3 °F /  -0.4 °C 30.1in /  1019.5hPa SW 5.2mph /  8.4km/h 5.9mph /  9.5km/h 55% 0in /  0.0mm CLR
03:37 46.8 °F /  8.2 °C 31.5 °F /  -0.3 °C 30.1in /  1019.5hPa South 5.2mph /  8.4km/h 6.9mph /  11.1km/h 55% 0in /  0.0mm CLR
03:42 46.8 °F /  8.2 °C 30.9 °F /  -0.6 °C 30.1in /  1019.5hPa South 4.3mph /  6.9km/h 4.7mph /  7.6km/h 54% 0in /  0.0mm CLR
03:47 46.6 °F /  8.1 °C 30.7 °F /  -0.7 °C 30.1in /  1019.5hPa South 4.3mph /  6.9km/h 5.8mph /  9.3km/h 54% 0in /  0.0mm CLR
03:52 46.4 °F /  8.0 °C 30.6 °F /  -0.8 °C 30.1in /  1019.5hPa South 3.6mph /  5.8km/h 4.6mph /  7.4km/h 54% 0in /  0.0mm CLR
03:57 46.2 °F /  7.9 °C 30.6 °F /  -0.8 °C 30.1in /  1019.5hPa SSE 3.6mph /  5.8km/h 4.6mph /  7.4km/h 54% 0in /  0.0mm CLR
04:02 46 °F /  7.8 °C 30.4 °F /  -0.9 °C 30.1in /  1019.5hPa South 4mph /  6.4km/h 6.9mph /  11.1km/h 54% 0in /  0.0mm CLR
04:07 45.9 °F /  7.7 °C 30 °F /  -1.1 °C 30.1in /  1019.5hPa SSE 4mph /  6.4km/h 6.9mph /  11.1km/h 54% 0in /  0.0mm CLR
04:12 45.7 °F /  7.6 °C 30.4 °F /  -0.9 °C 30.1in /  1019.5hPa SE 4.7mph /  7.6km/h 5.8mph /  9.3km/h 55% 0in /  0.0mm CLR
04:17 45.5 °F /  7.5 °C 30.4 °F /  -0.9 °C 30.1in /  1019.5hPa SSW 4.7mph /  7.6km/h 5.8mph /  9.3km/h 55% 0in /  0.0mm CLR
04:22 45.3 °F /  7.4 °C 30.6 °F /  -0.8 °C 30.1in /  1019.5hPa SSE 4.3mph /  6.9km/h 5.8mph /  9.3km/h 56% 0in /  0.0mm CLR
04:23 45.3 °F /  7.4 °C 30.6 °F /  -0.8 °C 30.1in /  1019.5hPa South 4.3mph /  6.9km/h 5.8mph /  9.3km/h 56% 0in /  0.0mm CLR
04:25 45.3 °F /  7.4 °C 30.6 °F /  -0.8 °C 30.1in /  1019.5hPa South 4.3mph /  6.9km/h 5.8mph /  9.3km/h 56% 0in /  0.0mm CLR
04:30 45.1 °F /  7.3 °C 29.8 °F /  -1.2 °C 30.1in /  1019.5hPa South 4.3mph /  6.9km/h 6.9mph /  11.1km/h 55% 0in /  0.0mm CLR
04:35 45.1 °F /  7.3 °C 29.8 °F /  -1.2 °C 30.1in /  1019.5hPa South 4.3mph /  6.9km/h 5.9mph /  9.5km/h 55% 0in /  0.0mm CLR
04:40 45.1 °F /  7.3 °C 29.8 °F /  -1.2 °C 30.1in /  1019.5hPa SSE 4.7mph /  7.6km/h 8.1mph /  13.0km/h 55% 0in /  0.0mm CLR
04:45 45.1 °F /  7.3 °C 29.8 °F /  -1.2 °C 30.1in /  1019.5hPa SW 4.7mph /  7.6km/h 6.9mph /  11.1km/h 55% 0in /  0.0mm CLR
04:50 45.1 °F /  7.3 °C 29.8 °F /  -1.2 °C 30.1in /  1019.5hPa SW 4.7mph /  7.6km/h 5.8mph /  9.3km/h 55% 0in /  0.0mm CLR
04:55 45.1 °F /  7.3 °C 30.4 °F /  -0.9 °C 30.1in /  1019.5hPa SSE 4.7mph /  7.6km/h 5.8mph /  9.3km/h 56% 0in /  0.0mm CLR
05:00 45.1 °F /  7.3 °C 30.4 °F /  -0.9 °C 30.1in /  1019.5hPa SSE 4mph /  6.4km/h 5.9mph /  9.5km/h 56% 0in /  0.0mm CLR
05:05 45.1 °F /  7.3 °C 30.4 °F /  -0.9 °C 30.1in /  1019.5hPa SSE 4mph /  6.4km/h 5.8mph /  9.3km/h 56% 0in /  0.0mm CLR
05:10 45 °F /  7.2 °C 30.2 °F /  -1.0 °C 30.1in /  1019.5hPa South 4.3mph /  6.9km/h 6.9mph /  11.1km/h 56% 0in /  0.0mm CLR
05:15 44.8 °F /  7.1 °C 30.6 °F /  -0.8 °C 30.1in /  1019.5hPa SSW 4.3mph /  6.9km/h 6.4mph /  10.3km/h 57% 0in /  0.0mm CLR
05:20 44.8 °F /  7.1 °C 30.6 °F /  -0.8 °C 30.1in /  1019.5hPa South 4.3mph /  6.9km/h 5.8mph /  9.3km/h 57% 0in /  0.0mm CLR
05:25 44.8 °F /  7.1 °C 30.6 °F /  -0.8 °C 30.1in /  1019.5hPa South 4.3mph /  6.9km/h 4.6mph /  7.4km/h 57% 0in /  0.0mm CLR
05:30 45 °F /  7.2 °C 30.6 °F /  -0.8 °C 30.1in /  1019.5hPa SSE 4mph /  6.4km/h 6.9mph /  11.1km/h 57% 0in /  0.0mm CLR
05:35 44.8 °F /  7.1 °C 31.3 °F /  -0.4 °C 30.1in /  1019.5hPa SSE 4mph /  6.4km/h 4.7mph /  7.6km/h 59% 0in /  0.0mm CLR
05:40 44.1 °F /  6.7 °C 31.5 °F /  -0.3 °C 30.1in /  1019.5hPa SSE 4.3mph /  6.9km/h 6.2mph /  10.0km/h 61% 0in /  0.0mm CLR
05:45 43.5 °F /  6.4 °C 31.8 °F /  -0.1 °C 30.1in /  1019.5hPa South 4.3mph /  6.9km/h 4.6mph /  7.4km/h 63% 0in /  0.0mm CLR
05:50 43.3 °F /  6.3 °C 31.3 °F /  -0.4 °C 30.1in /  1019.5hPa SSW 4.3mph /  6.9km/h 5.4mph /  8.7km/h 62% 0in /  0.0mm CLR
05:55 43.3 °F /  6.3 °C 31.3 °F /  -0.4 °C 30.1in /  1019.5hPa South 4.3mph /  6.9km/h 5.8mph /  9.3km/h 62% 0in /  0.0mm CLR
06:00 43.5 °F /  6.4 °C 30.9 °F /  -0.6 °C 30.1in /  1019.5hPa SSW 3.6mph /  5.8km/h 5.8mph /  9.3km/h 61% 0in /  0.0mm CLR
06:05 43.7 °F /  6.5 °C 30.4 °F /  -0.9 °C 30.1in /  1019.5hPa South 3.6mph /  5.8km/h 4.6mph /  7.4km/h 59% 0in /  0.0mm CLR
06:10 43.9 °F /  6.6 °C 30 °F /  -1.1 °C 30.1in /  1019.5hPa SSE 3.1mph /  5.0km/h 6.4mph /  10.3km/h 58% 0in /  0.0mm CLR
06:15 43.9 °F /  6.6 °C 30 °F /  -1.1 °C 30.1in /  1019.5hPa SSW 3.1mph /  5.0km/h 5.8mph /  9.3km/h 58% 0in /  0.0mm CLR
06:20 43.7 °F /  6.5 °C 29.8 °F /  -1.2 °C 30.1in /  1019.5hPa South 4.3mph /  6.9km/h 5.8mph /  9.3km/h 58% 0in /  0.0mm CLR
06:25 43.7 °F /  6.5 °C 29.8 °F /  -1.2 °C 30.1in /  1019.9hPa South 4.3mph /  6.9km/h 5.8mph /  9.3km/h 58% 0in /  0.0mm CLR
06:30 43.5 °F /  6.4 °C 30 °F /  -1.1 °C 30.1in /  1019.9hPa SSE 4mph /  6.4km/h 5.8mph /  9.3km/h 59% 0in /  0.0mm CLR
06:35 43.5 °F /  6.4 °C 30 °F /  -1.1 °C 30.1in /  1019.9hPa South 4mph /  6.4km/h 4.6mph /  7.4km/h 59% 0in /  0.0mm CLR
06:40 43.5 °F /  6.4 °C 30 °F /  -1.1 °C 30.1in /  1019.5hPa SSW 4mph /  6.4km/h 4.6mph /  7.4km/h 59% 0in /  0.0mm CLR
06:45 43.5 °F /  6.4 °C 30 °F /  -1.1 °C 30.1in /  1019.5hPa SSW 4mph /  6.4km/h 4.6mph /  7.4km/h 59% 0in /  0.0mm CLR
06:50 43.9 °F /  6.6 °C 30 °F /  -1.1 °C 30.1in /  1019.5hPa SSW 3.1mph /  5.0km/h 4.6mph /  7.4km/h 58% 0in /  0.0mm CLR
06:55 44.1 °F /  6.7 °C 29.8 °F /  -1.2 °C 30.1in /  1019.9hPa South 3.1mph /  5.0km/h 4.6mph /  7.4km/h 57% 0in /  0.0mm CLR
07:00 44.1 °F /  6.7 °C 30.2 °F /  -1.0 °C 30.1in /  1019.9hPa SSE 3.1mph /  5.0km/h 4.7mph /  7.6km/h 58% 0in /  0.0mm CLR
07:05 44.1 °F /  6.7 °C 30.6 °F /  -0.8 °C 30.1in /  1019.9hPa SSE 3.1mph /  5.0km/h 4.6mph /  7.4km/h 59% 0in /  0.0mm CLR
07:10 43.9 °F /  6.6 °C 30.9 °F /  -0.6 °C 30.1in /  1019.9hPa South 3.1mph /  5.0km/h 3.5mph /  5.6km/h 60% 0in /  0.0mm CLR
07:15 43.5 °F /  6.4 °C 30.6 °F /  -0.8 °C 30.1in /  1019.9hPa South 3.1mph /  5.0km/h 4.6mph /  7.4km/h 60% 0in /  0.0mm CLR
07:20 43.3 °F /  6.3 °C 30.4 °F /  -0.9 °C 30.1in /  1019.9hPa South 3.1mph /  5.0km/h 4.6mph /  7.4km/h 60% 0in /  0.0mm CLR
07:25 43.5 °F /  6.4 °C 30 °F /  -1.1 °C 30.1in /  1019.9hPa SW 3.1mph /  5.0km/h 5.8mph /  9.3km/h 59% 0in /  0.0mm CLR
07:30 43.5 °F /  6.4 °C 30 °F /  -1.1 °C 30.1in /  1019.9hPa SW 2.9mph /  4.7km/h 4.6mph /  7.4km/h 59% 0in /  0.0mm CLR
07:35 43.9 °F /  6.6 °C 30 °F /  -1.1 °C 30.1in /  1019.9hPa South 2.9mph /  4.7km/h 5.8mph /  9.3km/h 58% 0in /  0.0mm CLR
07:40 43.9 °F /  6.6 °C 30 °F /  -1.1 °C 30.1in /  1020.2hPa SSW 3.1mph /  5.0km/h 4.3mph /  6.9km/h 58% 0in /  0.0mm CLR
07:45 44.1 °F /  6.7 °C 30.2 °F /  -1.0 °C 30.1in /  1020.2hPa SSW 3.1mph /  5.0km/h 4.7mph /  7.6km/h 58% 0in /  0.0mm CLR
07:50 44.1 °F /  6.7 °C 30.6 °F /  -0.8 °C 30.1in /  1020.2hPa South 3.1mph /  5.0km/h 4.6mph /  7.4km/h 59% 0in /  0.0mm
07:55 43.9 °F /  6.6 °C 31.3 °F /  -0.4 °C 30.1in /  1020.2hPa SSE 3.1mph /  5.0km/h 5.8mph /  9.3km/h 61% 0in /  0.0mm
08:00 43.7 °F /  6.5 °C 31.1 °F /  -0.5 °C 30.1in /  1020.2hPa SSE 4mph /  6.4km/h 5.8mph /  9.3km/h 61% 0in /  0.0mm
08:05 43.5 °F /  6.4 °C 30.9 °F /  -0.6 °C 30.1in /  1020.2hPa South 4mph /  6.4km/h 5.8mph /  9.3km/h 61% 0in /  0.0mm
08:10 43.5 °F /  6.4 °C 30.9 °F /  -0.6 °C 30.1in /  1020.5hPa SSW 4.3mph /  6.9km/h 5.8mph /  9.3km/h 61% 0in /  0.0mm
08:15 43.7 °F /  6.5 °C 30.7 °F /  -0.7 °C 30.1in /  1020.5hPa SSW 4.3mph /  6.9km/h 6.9mph /  11.1km/h 60% 0in /  0.0mm
08:20 44.1 °F /  6.7 °C 31.1 °F /  -0.5 °C 30.1in /  1020.5hPa SSE 4mph /  6.4km/h 5.8mph /  9.3km/h 60% 0in /  0.0mm
08:25 44.2 °F /  6.8 °C 31.3 °F /  -0.4 °C 30.1in /  1020.5hPa SSW 4mph /  6.4km/h 4.6mph /  7.4km/h 60% 0in /  0.0mm
08:30 44.4 °F /  6.9 °C 30.9 °F /  -0.6 °C 30.1in /  1020.5hPa South 3.6mph /  5.8km/h 5.2mph /  8.4km/h 59% 0in /  0.0mm
08:35 44.4 °F /  6.9 °C 30.9 °F /  -0.6 °C 30.1in /  1020.5hPa SSE 3.6mph /  5.8km/h 4.6mph /  7.4km/h 59% 0in /  0.0mm
08:40 44.6 °F /  7.0 °C 31.6 °F /  -0.2 °C 30.1in /  1020.5hPa South 4mph /  6.4km/h 5.8mph /  9.3km/h 60% 0in /  0.0mm
08:45 44.8 °F /  7.1 °C 31.6 °F /  -0.2 °C 30.1in /  1020.5hPa SSE 4mph /  6.4km/h 5.8mph /  9.3km/h 60% 0in /  0.0mm FEW
08:50 44.8 °F /  7.1 °C 31.3 °F /  -0.4 °C 30.1in /  1020.5hPa SSE 4mph /  6.4km/h 6.9mph /  11.1km/h 59% 0in /  0.0mm
08:55 44.8 °F /  7.1 °C 31.6 °F /  -0.2 °C 30.1in /  1020.5hPa SSE 4mph /  6.4km/h 5.9mph /  9.5km/h 60% 0in /  0.0mm
09:00 44.8 °F /  7.1 °C 31.6 °F /  -0.2 °C 30.1in /  1020.5hPa SSE 4.7mph /  7.6km/h 6.2mph /  10.0km/h 60% 0in /  0.0mm
09:05 45 °F /  7.2 °C 31.8 °F /  -0.1 °C 30.1in /  1020.5hPa SSE 4.7mph /  7.6km/h 5.8mph /  9.3km/h 60% 0in /  0.0mm
09:10 45.1 °F /  7.3 °C 32.2 °F /  0.1 °C 30.1in /  1020.5hPa South 4.7mph /  7.6km/h 5.8mph /  9.3km/h 60% 0in /  0.0mm FEW
09:15 45.5 °F /  7.5 °C 32 °F /  0.0 °C 30.1in /  1020.5hPa SSE 4.7mph /  7.6km/h 5.8mph /  9.3km/h 59% 0in /  0.0mm
09:20 45.9 °F /  7.7 °C 32.4 °F /  0.2 °C 30.1in /  1020.5hPa SSE 4mph /  6.4km/h 5.8mph /  9.3km/h 59% 0in /  0.0mm
09:25 46.2 °F /  7.9 °C 30.6 °F /  -0.8 °C 30.1in /  1020.5hPa SSW 4mph /  6.4km/h 6.9mph /  11.1km/h 54% 0in /  0.0mm FEW
09:30 46.6 °F /  8.1 °C 29.8 °F /  -1.2 °C 30.1in /  1020.5hPa SSW 4.3mph /  6.9km/h 6.9mph /  11.1km/h 52% 0in /  0.0mm
09:35 46.8 °F /  8.2 °C 29.7 °F /  -1.3 °C 30.1in /  1020.5hPa South 4.3mph /  6.9km/h 6.9mph /  11.1km/h 51% 0in /  0.0mm
09:40 47.1 °F /  8.4 °C 29.8 °F /  -1.2 °C 30.1in /  1020.5hPa South 4.7mph /  7.6km/h 8.1mph /  13.0km/h 51% 0in /  0.0mm
09:45 47.7 °F /  8.7 °C 30.4 °F /  -0.9 °C 30.1in /  1020.5hPa South 4.7mph /  7.6km/h 5.8mph /  9.3km/h 51% 0in /  0.0mm
09:50 47.8 °F /  8.8 °C 30 °F /  -1.1 °C 30.1in /  1020.5hPa SSW 4.3mph /  6.9km/h 6.9mph /  11.1km/h 50% 0in /  0.0mm
09:55 48 °F /  8.9 °C 30.2 °F /  -1.0 °C 30.1in /  1020.5hPa SSW 4.3mph /  6.9km/h 5.8mph /  9.3km/h 50% 0in /  0.0mm
10:00 48.4 °F /  9.1 °C 30 °F /  -1.1 °C 30.1in /  1020.5hPa South 4.7mph /  7.6km/h 6.9mph /  11.1km/h 49% 0in /  0.0mm
10:06 48.6 °F /  9.2 °C 29.1 °F /  -1.6 °C 30.1in /  1020.5hPa SW 4.7mph /  7.6km/h 6.2mph /  10.0km/h 47% 0in /  0.0mm
10:10 48.6 °F /  9.2 °C 29.1 °F /  -1.6 °C 30.1in /  1020.5hPa SSW 4.7mph /  7.6km/h 6.9mph /  11.1km/h 47% 0in /  0.0mm
10:15 48.9 °F /  9.4 °C 29.7 °F /  -1.3 °C 30.1in /  1020.5hPa SSW 4.7mph /  7.6km/h 4.7mph /  7.6km/h 47% 0in /  0.0mm
10:20 49.5 °F /  9.7 °C 29.5 °F /  -1.4 °C 30.1in /  1020.5hPa South 4mph /  6.4km/h 5.8mph /  9.3km/h 46% 0in /  0.0mm
10:25 49.6 °F /  9.8 °C 29.7 °F /  -1.3 °C 30.1in /  1020.5hPa SSE 4mph /  6.4km/h 6.9mph /  11.1km/h 46% 0in /  0.0mm
10:30 50 °F /  10.0 °C 29.5 °F /  -1.4 °C 30.1in /  1020.5hPa SW 4mph /  6.4km/h 7.6mph /  12.2km/h 45% 0in /  0.0mm
10:35 50.2 °F /  10.1 °C 30.2 °F /  -1.0 °C 30.1in /  1020.5hPa SW 4mph /  6.4km/h 5.8mph /  9.3km/h 46% 0in /  0.0mm
10:40 50.5 °F /  10.3 °C 30 °F /  -1.1 °C 30.1in /  1020.5hPa SSE 4.3mph /  6.9km/h 6.9mph /  11.1km/h 45% 0in /  0.0mm
10:45 50.7 °F /  10.4 °C 30 °F /  -1.1 °C 30.1in /  1020.5hPa SW 4.3mph /  6.9km/h 8.1mph /  13.0km/h 45% 0in /  0.0mm
10:51 51.1 °F /  10.6 °C 29.3 °F /  -1.5 °C 30.1in /  1020.5hPa SSW 4.7mph /  7.6km/h 8.1mph /  13.0km/h 43% 0in /  0.0mm
10:56 51.4 °F /  10.8 °C 29.7 °F /  -1.3 °C 30.1in /  1020.5hPa SSW 4.7mph /  7.6km/h 8.1mph /  13.0km/h 43% 0in /  0.0mm
11:01 51.8 °F /  11.0 °C 29.5 °F /  -1.4 °C 30.1in /  1020.5hPa SW 5.2mph /  8.4km/h 6.9mph /  11.1km/h 42% 0in /  0.0mm
11:06 51.8 °F /  11.0 °C 28.8 °F /  -1.8 °C 30.1in /  1020.5hPa SSE 5.2mph /  8.4km/h 6.9mph /  11.1km/h 41% 0in /  0.0mm
11:11 52.2 °F /  11.2 °C 29.1 °F /  -1.6 °C 30.1in /  1020.5hPa South 4.3mph /  6.9km/h 6.4mph /  10.3km/h 41% 0in /  0.0mm
11:16 52.7 °F /  11.5 °C 29.7 °F /  -1.3 °C 30.1in /  1020.5hPa South 4.3mph /  6.9km/h 6.9mph /  11.1km/h 41% 0in /  0.0mm
11:21 53.1 °F /  11.7 °C 29.5 °F /  -1.4 °C 30.1in /  1020.5hPa SSE 4.3mph /  6.9km/h 6.9mph /  11.1km/h 40% 0in /  0.0mm
11:26 53.4 °F /  11.9 °C 29.7 °F /  -1.3 °C 30.1in /  1020.2hPa SW 4.3mph /  6.9km/h 5.8mph /  9.3km/h 40% 0in /  0.0mm
11:31 54 °F /  12.2 °C 29.5 °F /  -1.4 °C 30.1in /  1020.2hPa South 3.6mph /  5.8km/h 4.6mph /  7.4km/h 39% 0in /  0.0mm
11:36 54.3 °F /  12.4 °C 29.8 °F /  -1.2 °C 30.1in /  1020.2hPa SSW 3.6mph /  5.8km/h 5.8mph /  9.3km/h 39% 0in /  0.0mm
11:41 54.3 °F /  12.4 °C 29.8 °F /  -1.2 °C 30.1in /  1019.9hPa SSW 3.6mph /  5.8km/h 3.6mph /  5.8km/h 39% 0in /  0.0mm
11:46 54.9 °F /  12.7 °C 30.4 °F /  -0.9 °C 30.1in /  1019.9hPa South 3.6mph /  5.8km/h 6.9mph /  11.1km/h 39% 0in /  0.0mm
11:51 55.2 °F /  12.9 °C 30.7 °F /  -0.7 °C 30.1in /  1019.9hPa West 3.1mph /  5.0km/h 5.8mph /  9.3km/h 39% 0in /  0.0mm
11:56 55.6 °F /  13.1 °C 30.4 °F /  -0.9 °C 30.1in /  1019.5hPa SSW 3.1mph /  5.0km/h 5.8mph /  9.3km/h 38% 0in /  0.0mm
12:01 56.1 °F /  13.4 °C 30.7 °F /  -0.7 °C 30.1in /  1019.5hPa SW 3.1mph /  5.0km/h 5.8mph /  9.3km/h 38% 0in /  0.0mm
12:06 56.7 °F /  13.7 °C 31.3 °F /  -0.4 °C 30.1in /  1019.5hPa West 3.1mph /  5.0km/h 3.5mph /  5.6km/h 38% 0in /  0.0mm
12:11 56.8 °F /  13.8 °C 31.5 °F /  -0.3 °C 30.1in /  1019.5hPa SSE 3.1mph /  5.0km/h 5.9mph /  9.5km/h 38% 0in /  0.0mm
12:16 57 °F /  13.9 °C 31.6 °F /  -0.2 °C 30.1in /  1019.5hPa SW 3.1mph /  5.0km/h 4.6mph /  7.4km/h 38% 0in /  0.0mm CLR
12:21 57.6 °F /  14.2 °C 32.2 °F /  0.1 °C 30.1in /  1019.5hPa South 3.1mph /  5.0km/h 5.8mph /  9.3km/h 38% 0in /  0.0mm CLR
12:26 57.9 °F /  14.4 °C 32.4 °F /  0.2 °C 30.1in /  1019.2hPa SSW 3.1mph /  5.0km/h 5.2mph /  8.4km/h 38% 0in /  0.0mm CLR
12:31 58.3 °F /  14.6 °C 33.4 °F /  0.8 °C 30.1in /  1019.2hPa SSW 3.1mph /  5.0km/h 3.5mph /  5.6km/h 39% 0in /  0.0mm CLR
12:36 58.6 °F /  14.8 °C 33.1 °F /  0.6 °C 30.1in /  1019.2hPa SSW 3.1mph /  5.0km/h 4.6mph /  7.4km/h 38% 0in /  0.0mm CLR
12:41 58.6 °F /  14.8 °C 33.1 °F /  0.6 °C 30.1in /  1018.8hPa West 2.9mph /  4.7km/h 3.5mph /  5.6km/h 38% 0in /  0.0mm CLR
12:46 59.4 °F /  15.2 °C 33.6 °F /  0.9 °C 30.1in /  1018.8hPa SW 2.9mph /  4.7km/h 5.8mph /  9.3km/h 38% 0in /  0.0mm CLR
12:51 59.5 °F /  15.3 °C 34 °F /  1.1 °C 30.1in /  1018.8hPa SSW 2.9mph /  4.7km/h 5.8mph /  9.3km/h 38% 0in /  0.0mm CLR
12:56 59.5 °F /  15.3 °C 34.5 °F /  1.4 °C 30.1in /  1018.5hPa SW 2.9mph /  4.7km/h 5.8mph /  9.3km/h 39% 0in /  0.0mm CLR
13:01 59.9 °F /  15.5 °C 34.9 °F /  1.6 °C 30.1in /  1018.5hPa SSE 4mph /  6.4km/h 4.6mph /  7.4km/h 39% 0in /  0.0mm CLR
13:06 60.3 °F /  15.7 °C 35.8 °F /  2.1 °C 30.1in /  1018.5hPa SSW 4mph /  6.4km/h 5.9mph /  9.5km/h 40% 0in /  0.0mm CLR
13:11 60.6 °F /  15.9 °C 35.4 °F /  1.9 °C 30.1in /  1018.5hPa SSE 3.1mph /  5.0km/h 3.1mph /  5.0km/h 39% 0in /  0.0mm CLR
13:16 61 °F /  16.1 °C 36.5 °F /  2.5 °C 30.1in /  1018.5hPa SSE 3.1mph /  5.0km/h 5.8mph /  9.3km/h 40% 0in /  0.0mm CLR
13:21 61.3 °F /  16.3 °C 37.4 °F /  3.0 °C 30.1in /  1018.5hPa SW 2.9mph /  4.7km/h 5.9mph /  9.5km/h 41% 0in /  0.0mm CLR
13:26 61.5 °F /  16.4 °C 37.6 °F /  3.1 °C 30.1in /  1017.8hPa ESE 2.9mph /  4.7km/h 4.6mph /  7.4km/h 41% 0in /  0.0mm CLR
13:31 61.9 °F /  16.6 °C 37.9 °F /  3.3 °C 30.1in /  1017.8hPa SSW 3.1mph /  5.0km/h 4.7mph /  7.6km/h 41% 0in /  0.0mm CLR
13:36 61.9 °F /  16.6 °C 37.2 °F /  2.9 °C 30.1in /  1017.8hPa South 3.1mph /  5.0km/h 5.8mph /  9.3km/h 40% 0in /  0.0mm CLR
13:41 62.2 °F /  16.8 °C 38.1 °F /  3.4 °C 30.1in /  1017.5hPa SSW 3.6mph /  5.8km/h 6.9mph /  11.1km/h 41% 0in /  0.0mm CLR
13:46 62.4 °F /  16.9 °C 39 °F /  3.9 °C 30.1in /  1017.5hPa West 3.6mph /  5.8km/h 3.6mph /  5.8km/h 42% 0in /  0.0mm CLR
13:51 62.6 °F /  17.0 °C 39.2 °F /  4.0 °C 30.1in /  1017.5hPa South 3.1mph /  5.0km/h 4.6mph /  7.4km/h 42% 0in /  0.0mm CLR
13:56 63.1 °F /  17.3 °C 39.7 °F /  4.3 °C 30in /  1017.2hPa SSW 3.1mph /  5.0km/h 4.7mph /  7.6km/h 42% 0in /  0.0mm CLR
14:01 63.3 °F /  17.4 °C 39.7 °F /  4.3 °C 30in /  1017.2hPa WSW 2.9mph /  4.7km/h 3.5mph /  5.6km/h 42% 0in /  0.0mm CLR
14:06 63.7 °F /  17.6 °C 40.1 °F /  4.5 °C 30in /  1017.2hPa North 2.9mph /  4.7km/h 3.5mph /  5.6km/h 42% 0in /  0.0mm CLR
14:11 64.2 °F /  17.9 °C 40.6 °F /  4.8 °C 30in /  1016.8hPa ESE 2mph /  3.2km/h 3.5mph /  5.6km/h 42% 0in /  0.0mm CLR
14:16 64.6 °F /  18.1 °C 40.3 °F /  4.6 °C 30in /  1016.8hPa SE 2mph /  3.2km/h 4.6mph /  7.4km/h 41% 0in /  0.0mm CLR
14:21 64.8 °F /  18.2 °C 41.2 °F /  5.1 °C 30in /  1016.8hPa NNE 2.4mph /  3.9km/h 3.5mph /  5.6km/h 42% 0in /  0.0mm CLR
14:26 64.9 °F /  18.3 °C 41.4 °F /  5.2 °C 30in /  1016.8hPa North 2.4mph /  3.9km/h 3.5mph /  5.6km/h 42% 0in /  0.0mm CLR
14:31 65.1 °F /  18.4 °C 41.4 °F /  5.2 °C 30in /  1016.8hPa West 2mph /  3.2km/h 5.8mph /  9.3km/h 42% 0in /  0.0mm CLR
14:36 65.1 °F /  18.4 °C 41.4 °F /  5.2 °C 30in /  1016.5hPa WSW 2mph /  3.2km/h 4.6mph /  7.4km/h 42% 0in /  0.0mm CLR
14:41 65.3 °F /  18.5 °C 41.5 °F /  5.3 °C 30in /  1016.5hPa ESE 2.9mph /  4.7km/h 4.6mph /  7.4km/h 42% 0in /  0.0mm CLR
14:46 65.5 °F /  18.6 °C 41.2 °F /  5.1 °C 30in /  1016.5hPa ESE 2.9mph /  4.7km/h 3.5mph /  5.6km/h 41% 0in /  0.0mm CLR
14:51 65.8 °F /  18.8 °C 42.1 °F /  5.6 °C 30in /  1016.5hPa WNW 2.9mph /  4.7km/h 3.5mph /  5.6km/h 42% 0in /  0.0mm CLR
14:56 66 °F /  18.9 °C 41.5 °F /  5.3 °C 30in /  1016.5hPa WSW 2.9mph /  4.7km/h 4.6mph /  7.4km/h 41% 0in /  0.0mm CLR
15:01 66.4 °F /  19.1 °C 42.1 °F /  5.6 °C 30in /  1016.5hPa WNW 2.9mph /  4.7km/h 5.8mph /  9.3km/h 41% 0in /  0.0mm CLR
15:07 66.2 °F /  19.0 °C 42.4 °F /  5.8 °C 30in /  1016.5hPa West 2.9mph /  4.7km/h 3.6mph /  5.8km/h 42% 0in /  0.0mm CLR
15:11 66.4 °F /  19.1 °C 42.6 °F /  5.9 °C 30in /  1016.1hPa SW 2.9mph /  4.7km/h 4.6mph /  7.4km/h 42% 0in /  0.0mm CLR
15:16 66.4 °F /  19.1 °C 42.6 °F /  5.9 °C 30in /  1016.1hPa South 2.9mph /  4.7km/h 5.8mph /  9.3km/h 42% 0in /  0.0mm CLR
15:21 66.4 °F /  19.1 °C 42.6 °F /  5.9 °C 30in /  1016.1hPa SW 3.6mph /  5.8km/h 5.8mph /  9.3km/h 42% 0in /  0.0mm CLR
15:26 66.6 °F /  19.2 °C 42.6 °F /  5.9 °C 30in /  1016.1hPa SW 3.6mph /  5.8km/h 4.6mph /  7.4km/h 42% 0in /  0.0mm CLR
15:32 66.6 °F /  19.2 °C 42.1 °F /  5.6 °C 30in /  1016.1hPa SW 3.1mph /  5.0km/h 4.6mph /  7.4km/h 41% 0in /  0.0mm CLR
15:37 66.7 °F /  19.3 °C 42.3 °F /  5.7 °C 30in /  1015.8hPa South 3.1mph /  5.0km/h 3.5mph /  5.6km/h 41% 0in /  0.0mm CLR
15:42 66.7 °F /  19.3 °C 42.3 °F /  5.7 °C 30in /  1015.8hPa SSW 2.4mph /  3.9km/h 4.6mph /  7.4km/h 41% 0in /  0.0mm CLR
15:47 66.7 °F /  19.3 °C 42.3 °F /  5.7 °C 30in /  1015.8hPa SE 2.4mph /  3.9km/h 4mph /  6.4km/h 41% 0in /  0.0mm CLR
15:52 66.7 °F /  19.3 °C 43 °F /  6.1 °C 30in /  1015.8hPa South 3.1mph /  5.0km/h 4.6mph /  7.4km/h 42% 0in /  0.0mm CLR
15:57 66.7 °F /  19.3 °C 42.3 °F /  5.7 °C 30in /  1015.8hPa SSE 3.1mph /  5.0km/h 5.8mph /  9.3km/h 41% 0in /  0.0mm CLR
16:02 66.9 °F /  19.4 °C 43.2 °F /  6.2 °C 30in /  1015.8hPa ESE 3.1mph /  5.0km/h 4.6mph /  7.4km/h 42% 0in /  0.0mm CLR
16:07 67.1 °F /  19.5 °C 43.2 °F /  6.2 °C 30in /  1015.8hPa SSW 3.1mph /  5.0km/h 4.6mph /  7.4km/h 42% 0in /  0.0mm CLR
16:12 67.3 °F /  19.6 °C 42.8 °F /  6.0 °C 30in /  1015.8hPa SW 3.1mph /  5.0km/h 3.5mph /  5.6km/h 41% 0in /  0.0mm CLR
16:17 67.5 °F /  19.7 °C 43 °F /  6.1 °C 30in /  1015.8hPa WSW 3.1mph /  5.0km/h 3.1mph /  5.0km/h 41% 0in /  0.0mm CLR
16:18 67.6 °F /  19.8 °C 43.2 °F /  6.2 °C 30in /  1015.8hPa WSW 1.8mph /  2.9km/h 2.3mph /  3.7km/h 41% 0in /  0.0mm CLR
16:23 67.6 °F /  19.8 °C 43.2 °F /  6.2 °C 30in /  1015.8hPa WSW 1.8mph /  2.9km/h 2.3mph /  3.7km/h 41% 0in /  0.0mm CLR
16:28 67.8 °F /  19.9 °C 43.2 °F /  6.2 °C 30in /  1015.8hPa NE 1.4mph /  2.3km/h 4mph /  6.4km/h 41% 0in /  0.0mm CLR
16:33 67.8 °F /  19.9 °C 43.2 °F /  6.2 °C 30in /  1015.8hPa ESE 1.4mph /  2.3km/h 4.6mph /  7.4km/h 41% 0in /  0.0mm CLR
16:38 67.5 °F /  19.7 °C 43 °F /  6.1 °C 30in /  1015.8hPa East 2.9mph /  4.7km/h 5.8mph /  9.3km/h 41% 0in /  0.0mm CLR
16:43 67.3 °F /  19.6 °C 42.8 °F /  6.0 °C 30in /  1015.8hPa East 2.9mph /  4.7km/h 4.6mph /  7.4km/h 41% 0in /  0.0mm CLR
16:48 67.1 °F /  19.5 °C 43.2 °F /  6.2 °C 30in /  1015.8hPa ENE 2.9mph /  4.7km/h 3.5mph /  5.6km/h 42% 0in /  0.0mm CLR
16:53 67.1 °F /  19.5 °C 43.9 °F /  6.6 °C 30in /  1015.8hPa East 2.9mph /  4.7km/h 5.8mph /  9.3km/h 43% 0in /  0.0mm CLR
16:58 67.1 °F /  19.5 °C 44.4 °F /  6.9 °C 30in /  1015.8hPa ESE 2.4mph /  3.9km/h 5.8mph /  9.3km/h 44% 0in /  0.0mm CLR
17:03 66.9 °F /  19.4 °C 45.5 °F /  7.5 °C 30in /  1015.8hPa SSE 2.4mph /  3.9km/h 8.5mph /  13.7km/h 46% 0in /  0.0mm CLR
17:08 66.4 °F /  19.1 °C 45.5 °F /  7.5 °C 30in /  1015.8hPa SSE 4.3mph /  6.9km/h 9.2mph /  14.8km/h 47% 0in /  0.0mm CLR
17:13 66 °F /  18.9 °C 45.9 °F /  7.7 °C 30in /  1015.8hPa SE 4.3mph /  6.9km/h 5.8mph /  9.3km/h 48% 0in /  0.0mm CLR
17:18 65.7 °F /  18.7 °C 46 °F /  7.8 °C 30in /  1015.8hPa ESE 4.7mph /  7.6km/h 5.9mph /  9.5km/h 49% 0in /  0.0mm CLR
17:23 65.3 °F /  18.5 °C 46.2 °F /  7.9 °C 30in /  1015.8hPa ESE 4.7mph /  7.6km/h 6.9mph /  11.1km/h 50% 0in /  0.0mm CLR
17:28 64.8 °F /  18.2 °C 45.7 °F /  7.6 °C 30in /  1015.8hPa East 5.4mph /  8.7km/h 6.9mph /  11.1km/h 50% 0in /  0.0mm CLR
17:33 64.6 °F /  18.1 °C 46 °F /  7.8 °C 30in /  1015.8hPa East 5.4mph /  8.7km/h 6.9mph /  11.1km/h 51% 0in /  0.0mm CLR
17:38 64.4 °F /  18.0 °C 45.9 °F /  7.7 °C 30in /  1015.8hPa East 4.3mph /  6.9km/h 4.6mph /  7.4km/h 51% 0in /  0.0mm CLR
17:43 64.2 °F /  17.9 °C 46.2 °F /  7.9 °C 30in /  1015.8hPa ESE 4.3mph /  6.9km/h 4.6mph /  7.4km/h 52% 0in /  0.0mm CLR
17:48 64 °F /  17.8 °C 46 °F /  7.8 °C 30in /  1015.8hPa ESE 4mph /  6.4km/h 5.8mph /  9.3km/h 52% 0in /  0.0mm CLR
17:53 63.7 °F /  17.6 °C 45.7 °F /  7.6 °C 30in /  1015.8hPa ESE 4mph /  6.4km/h 4.6mph /  7.4km/h 52% 0in /  0.0mm CLR
17:58 63.3 °F /  17.4 °C 45.9 °F /  7.7 °C 30in /  1015.8hPa ESE 3.1mph /  5.0km/h 4.6mph /  7.4km/h 53% 0in /  0.0mm CLR
18:03 63.1 °F /  17.3 °C 45.7 °F /  7.6 °C 30in /  1015.8hPa ESE 3.1mph /  5.0km/h 5.8mph /  9.3km/h 53% 0in /  0.0mm CLR
18:08 63 °F /  17.2 °C 46 °F /  7.8 °C 30in /  1016.1hPa ESE 3.1mph /  5.0km/h 4.6mph /  7.4km/h 54% 0in /  0.0mm CLR
18:13 62.6 °F /  17.0 °C 45.7 °F /  7.6 °C 30in /  1016.1hPa SE 3.1mph /  5.0km/h 5.8mph /  9.3km/h 54% 0in /  0.0mm CLR
18:18 62.2 °F /  16.8 °C 45.9 °F /  7.7 °C 30in /  1016.1hPa ESE 3.1mph /  5.0km/h 5.8mph /  9.3km/h 55% 0in /  0.0mm CLR
18:23 62.1 °F /  16.7 °C 45.7 °F /  7.6 °C 30in /  1016.1hPa SE 3.1mph /  5.0km/h 4.7mph /  7.6km/h 55% 0in /  0.0mm CLR
18:28 61.7 °F /  16.5 °C 45.9 °F /  7.7 °C 30in /  1016.1hPa SE 3.6mph /  5.8km/h 5.8mph /  9.3km/h 56% 0in /  0.0mm CLR
18:33 61.5 °F /  16.4 °C 45.7 °F /  7.6 °C 30in /  1016.1hPa SE 3.6mph /  5.8km/h 4.6mph /  7.4km/h 56% 0in /  0.0mm CLR
18:38 61.3 °F /  16.3 °C 46 °F /  7.8 °C 30in /  1016.1hPa ESE 3.1mph /  5.0km/h 3.5mph /  5.6km/h 57% 0in /  0.0mm CLR
18:43 61.2 °F /  16.2 °C 45.9 °F /  7.7 °C 30in /  1016.1hPa SE 3.1mph /  5.0km/h 4.6mph /  7.4km/h 57% 0in /  0.0mm CLR
18:48 61 °F /  16.1 °C 45.7 °F /  7.6 °C 30in /  1016.1hPa SE 2.4mph /  3.9km/h 2.9mph /  4.7km/h 57% 0in /  0.0mm CLR
18:53 60.8 °F /  16.0 °C 45.9 °F /  7.7 °C 30in /  1016.1hPa SE 2.4mph /  3.9km/h 3.5mph /  5.6km/h 58% 0in /  0.0mm CLR
18:58 60.6 °F /  15.9 °C 45.9 °F /  7.7 °C 30in /  1016.1hPa ENE 2mph /  3.2km/h 3.5mph /  5.6km/h 58% 0in /  0.0mm CLR
19:03 60.6 °F /  15.9 °C 45.9 °F /  7.7 °C 30in /  1016.1hPa ENE 2mph /  3.2km/h 2.3mph /  3.7km/h 58% 0in /  0.0mm CLR
19:08 60.6 °F /  15.9 °C 45.9 °F /  7.7 °C 30in /  1016.5hPa ENE 1.8mph /  2.9km/h 1.8mph /  2.9km/h 58% 0in /  0.0mm CLR
19:13 60.4 °F /  15.8 °C 45.7 °F /  7.6 °C 30in /  1016.5hPa ENE 1.8mph /  2.9km/h 2.3mph /  3.7km/h 58% 0in /  0.0mm CLR
19:18 60.3 °F /  15.7 °C 45.3 °F /  7.4 °C 30in /  1016.5hPa ENE 1.4mph /  2.3km/h 2.3mph /  3.7km/h 58% 0in /  0.0mm CLR
19:23 60.3 °F /  15.7 °C 45.9 °F /  7.7 °C 30in /  1016.5hPa ENE 1.4mph /  2.3km/h 1.4mph /  2.3km/h 59% 0in /  0.0mm CLR
19:28 60.1 °F /  15.6 °C 45.7 °F /  7.6 °C 30in /  1016.5hPa ENE 1.4mph /  2.3km/h 2.3mph /  3.7km/h 59% 0in /  0.0mm CLR
19:33 59.7 °F /  15.4 °C 45.9 °F /  7.7 °C 30in /  1016.5hPa ENE 1.4mph /  2.3km/h 2.3mph /  3.7km/h 60% 0in /  0.0mm CLR
19:35 59.7 °F /  15.4 °C 45.9 °F /  7.7 °C 30in /  1016.5hPa ENE 1.4mph /  2.3km/h 2.3mph /  3.7km/h 60% 0in /  0.0mm CLR
19:40 59.5 °F /  15.3 °C 45.7 °F /  7.6 °C 30in /  1016.8hPa Calm   2.3mph /  3.7km/h 60% 0in /  0.0mm CLR
19:45 59.4 °F /  15.2 °C 45.9 °F /  7.7 °C 30in /  1016.8hPa Calm   1.8mph /  2.9km/h 61% 0in /  0.0mm CLR
19:50 59.2 °F /  15.1 °C 45.7 °F /  7.6 °C 30in /  1016.8hPa Calm   2.4mph /  3.9km/h 61% 0in /  0.0mm CLR
19:55 59.2 °F /  15.1 °C 45.7 °F /  7.6 °C 30in /  1016.8hPa Calm   2.3mph /  3.7km/h 61% 0in /  0.0mm CLR
20:00 59.2 °F /  15.1 °C 45.7 °F /  7.6 °C 30in /  1016.8hPa ENE 1.4mph /  2.3km/h 2.3mph /  3.7km/h 61% 0in /  0.0mm CLR
20:05 58.8 °F /  14.9 °C 45.3 °F /  7.4 °C 30in /  1016.8hPa ENE 1.4mph /  2.3km/h 2.4mph /  3.9km/h 61% 0in /  0.0mm CLR
20:06 59 °F /  15.0 °C 45.7 °F /  7.6 °C 30in /  1016.8hPa ENE 1.4mph /  2.3km/h 2.4mph /  3.9km/h 61% 0in /  0.0mm CLR
20:11 58.8 °F /  14.9 °C 45.9 °F /  7.7 °C 30in /  1016.8hPa ENE 1.8mph /  2.9km/h 3.5mph /  5.6km/h 62% 0in /  0.0mm CLR
20:16 58.6 °F /  14.8 °C 45.7 °F /  7.6 °C 30in /  1016.8hPa NE 1.8mph /  2.9km/h 3.5mph /  5.6km/h 62% 0in /  0.0mm CLR
20:21 58.6 °F /  14.8 °C 45.7 °F /  7.6 °C 30in /  1016.8hPa NNE 2.4mph /  3.9km/h 3.5mph /  5.6km/h 62% 0in /  0.0mm CLR
20:26 58.5 °F /  14.7 °C 45.5 °F /  7.5 °C 30in /  1016.8hPa NNE 2.4mph /  3.9km/h 3.6mph /  5.8km/h 62% 0in /  0.0mm CLR
20:31 58.5 °F /  14.7 °C 45.5 °F /  7.5 °C 30in /  1016.8hPa NNE 2.9mph /  4.7km/h 3.5mph /  5.6km/h 62% 0in /  0.0mm CLR
20:36 58.5 °F /  14.7 °C 45.9 °F /  7.7 °C 30in /  1016.8hPa NNE 2.9mph /  4.7km/h 3.5mph /  5.6km/h 63% 0in /  0.0mm CLR
20:40 58.5 °F /  14.7 °C 45.9 °F /  7.7 °C 30in /  1017.2hPa NNW 2.4mph /  3.9km/h 3.5mph /  5.6km/h 63% 0in /  0.0mm CLR
20:46 58.5 °F /  14.7 °C 45.9 °F /  7.7 °C 30in /  1017.2hPa NNW 2.4mph /  3.9km/h 2.4mph /  3.9km/h 63% 0in /  0.0mm CLR
20:51 58.5 °F /  14.7 °C 45.9 °F /  7.7 °C 30in /  1017.2hPa NNW 1.8mph /  2.9km/h 2.4mph /  3.9km/h 63% 0in /  0.0mm CLR
20:56 58.5 °F /  14.7 °C 45.9 °F /  7.7 °C 30in /  1017.2hPa NW 1.8mph /  2.9km/h 2.3mph /  3.7km/h 63% 0in /  0.0mm CLR
21:01 58.5 °F /  14.7 °C 45.5 °F /  7.5 °C 30in /  1017.2hPa West 2mph /  3.2km/h 2.3mph /  3.7km/h 62% 0in /  0.0mm CLR
21:06 58.5 °F /  14.7 °C 45.9 °F /  7.7 °C 30in /  1017.2hPa SSW 2mph /  3.2km/h 3.6mph /  5.8km/h 63% 0in /  0.0mm CLR
21:11 58.5 °F /  14.7 °C 45.9 °F /  7.7 °C 30in /  1017.2hPa SSW 1.4mph /  2.3km/h 3.5mph /  5.6km/h 63% 0in /  0.0mm CLR
21:16 58.5 °F /  14.7 °C 45.9 °F /  7.7 °C 30in /  1017.2hPa SSW 1.4mph /  2.3km/h 3.5mph /  5.6km/h 63% 0in /  0.0mm CLR
21:21 58.6 °F /  14.8 °C 46 °F /  7.8 °C 30in /  1017.2hPa SW 2mph /  3.2km/h 4.6mph /  7.4km/h 63% 0in /  0.0mm CLR
21:26 58.6 °F /  14.8 °C 45.7 °F /  7.6 °C 30in /  1017.2hPa SW 2mph /  3.2km/h 4.6mph /  7.4km/h 62% 0in /  0.0mm CLR
21:31 58.6 °F /  14.8 °C 45.7 °F /  7.6 °C 30in /  1017.2hPa SSW 2.9mph /  4.7km/h 3.5mph /  5.6km/h 62% 0in /  0.0mm CLR
21:36 58.6 °F /  14.8 °C 46 °F /  7.8 °C 30in /  1017.2hPa SSE 2.9mph /  4.7km/h 4.6mph /  7.4km/h 63% 0in /  0.0mm CLR
21:41 58.5 °F /  14.7 °C 45.9 °F /  7.7 °C 30.1in /  1017.5hPa SSE 2.4mph /  3.9km/h 3.5mph /  5.6km/h 63% 0in /  0.0mm CLR
21:46 58.3 °F /  14.6 °C 45.7 °F /  7.6 °C 30.1in /  1017.5hPa SSE 2.4mph /  3.9km/h 2.4mph /  3.9km/h 63% 0in /  0.0mm CLR
21:51 58.1 °F /  14.5 °C 45.7 °F /  7.6 °C 30.1in /  1017.5hPa SSE 2mph /  3.2km/h 2.3mph /  3.7km/h 63% 0in /  0.0mm CLR
21:56 57.9 °F /  14.4 °C 45.9 °F /  7.7 °C 30.1in /  1017.5hPa SSE 2mph /  3.2km/h   64% 0in /  0.0mm CLR
22:06 57.6 °F /  14.2 °C 45.9 °F /  7.7 °C 30.1in /  1017.5hPa ESE 1.4mph /  2.3km/h 3.5mph /  5.6km/h 65% 0in /  0.0mm CLR
22:11 57.4 °F /  14.1 °C 45.7 °F /  7.6 °C 30.1in /  1017.5hPa ESE 2mph /  3.2km/h 2.3mph /  3.7km/h 65% 0in /  0.0mm CLR
22:16 56.8 °F /  13.8 °C 45.7 °F /  7.6 °C 30.1in /  1017.5hPa SE 2mph /  3.2km/h 2.3mph /  3.7km/h 66% 0in /  0.0mm CLR
22:21 56.7 °F /  13.7 °C 45.3 °F /  7.4 °C 30.1in /  1017.5hPa SSE 1.8mph /  2.9km/h 4.6mph /  7.4km/h 66% 0in /  0.0mm CLR
22:26 56.5 °F /  13.6 °C 45.7 °F /  7.6 °C 30.1in /  1017.8hPa SSE 1.8mph /  2.9km/h 2.3mph /  3.7km/h 67% 0in /  0.0mm CLR
22:31 56.5 °F /  13.6 °C 45.7 °F /  7.6 °C 30.1in /  1017.8hPa SSE 2mph /  3.2km/h 2.3mph /  3.7km/h 67% 0in /  0.0mm CLR
22:36 56.1 °F /  13.4 °C 45.3 °F /  7.4 °C 30.1in /  1017.8hPa SSE 2mph /  3.2km/h 2mph /  3.2km/h 67% 0in /  0.0mm CLR
22:41 55.9 °F /  13.3 °C 45.5 °F /  7.5 °C 30.1in /  1017.8hPa Calm   2.3mph /  3.7km/h 68% 0in /  0.0mm CLR
22:46 55.8 °F /  13.2 °C 45.3 °F /  7.4 °C 30.1in /  1017.8hPa Calm   3.1mph /  5.0km/h 68% 0in /  0.0mm CLR
22:51 55.6 °F /  13.1 °C 45.7 °F /  7.6 °C 30.1in /  1017.8hPa WSW 1.8mph /  2.9km/h 5.8mph /  9.3km/h 69% 0in /  0.0mm CLR
22:56 55.6 °F /  13.1 °C 45.7 °F /  7.6 °C 30.1in /  1017.8hPa SSW 1.8mph /  2.9km/h 4.7mph /  7.6km/h 69% 0in /  0.0mm CLR
23:01 55.6 °F /  13.1 °C 45.7 °F /  7.6 °C 30.1in /  1017.8hPa SSW 3.1mph /  5.0km/h 5.8mph /  9.3km/h 69% 0in /  0.0mm CLR
23:06 55.4 °F /  13.0 °C 45.3 °F /  7.4 °C 30.1in /  1017.8hPa South 3.1mph /  5.0km/h 5.2mph /  8.4km/h 69% 0in /  0.0mm CLR
23:11 55 °F /  12.8 °C 45.1 °F /  7.3 °C 30.1in /  1017.5hPa South 4mph /  6.4km/h 4.6mph /  7.4km/h 69% 0in /  0.0mm CLR
23:16 54.9 °F /  12.7 °C 45 °F /  7.2 °C 30.1in /  1017.5hPa SSW 4mph /  6.4km/h 4.7mph /  7.6km/h 69% 0in /  0.0mm CLR
23:21 54.5 °F /  12.5 °C 45 °F /  7.2 °C 30.1in /  1017.5hPa SSW 3.1mph /  5.0km/h 5.8mph /  9.3km/h 70% 0in /  0.0mm CLR
23:26 54.3 °F /  12.4 °C 44.8 °F /  7.1 °C 30.1in /  1017.5hPa SSW 3.1mph /  5.0km/h 5.8mph /  9.3km/h 70% 0in /  0.0mm CLR
23:27 54.3 °F /  12.4 °C 44.8 °F /  7.1 °C 30.1in /  1017.5hPa South 3.1mph /  5.0km/h 4.6mph /  7.4km/h 70% 0in /  0.0mm CLR
23:32 54.1 °F /  12.3 °C 45 °F /  7.2 °C 30.1in /  1017.5hPa SSW 3.6mph /  5.8km/h 5.8mph /  9.3km/h 71% 0in /  0.0mm CLR
23:37 54.1 °F /  12.3 °C 45 °F /  7.2 °C 30.1in /  1017.8hPa SW 3.6mph /  5.8km/h 4.6mph /  7.4km/h 71% 0in /  0.0mm CLR
23:42 54.1 °F /  12.3 °C 45 °F /  7.2 °C 30.1in /  1017.8hPa SSW 2.9mph /  4.7km/h 3.6mph /  5.8km/h 71% 0in /  0.0mm CLR
23:47 54 °F /  12.2 °C 44.8 °F /  7.1 °C 30.1in /  1017.8hPa SSW 2.9mph /  4.7km/h 8.1mph /  13.0km/h 71% 0in /  0.0mm CLR
23:52 53.8 °F /  12.1 °C 44.6 °F /  7.0 °C 30.1in /  1017.5hPa SSW 3.1mph /  5.0km/h 4.6mph /  7.4km/h 71% 0in /  0.0mm CLR
23:57 53.4 °F /  11.9 °C 44.2 °F /  6.8 °C 30.1in /  1017.5hPa SSW 3.1mph /  5.0km/h 5.8mph /  9.3km/h 71% 0in /  0.0mm CLR
Murcia-Puente Tocinos, España
Compliments of Weather Underground - 2.75 mb

La estación de MeteoMurcia.com, publica sus datos en los siguientes proyectos:

Meteoclimatic www.awekas.at

W3Counter
Web Analytics